Rechercher aéroport 
image banner adimage banner adimage banner ad
image banner ad

8PN8 - Rorer Group

Situé à Fort Washington, United States

ICAO - 8PN8, IATA -

Données fournies par Airmate  

Information générale

Coordonnées: N40°8'30" W75°11'19"
Élévation : 182 feet MSL.
Variation magnétique : -11° East
Voir autres Aéroports à Pennsylvania

Données opérationnelles

Special qualification required
Heure actuelle UTC:
Heure actuelle locale:
Météo à : KLOM - Wings Field ( 7 km )
METAR: KLOM 132055Z AUTO 21004KT 10SM BKN034 OVC043 24/18 A2989 RMK AO2 T02420181
Voir NOTAMs / SUP AIP / TFR affectant cet aéroport [VIEW]
Fréquences de communication: [VIEW]

Pistes:

Coordonnées de l'aéroport

Adresse: Fort Washington United States

Vue satellite de 8PN8